Time;durP1;ratioP1;P1;durP2;ratioP2;P2;SDS_P1;SDS_P2;PMS_P1;PMS_P2;Temp;Humidity;BMP_temperature;BMP_pressure;BME280_temperature;BME280_humidity;BME280_pressure;Samples;Min_cycle;Max_cycle;Signal;HPM_P1;HPM_P2
2023/10/12 00:01:38;;;;;;;9.40;1.95;;;;;;;;;;5084612;28;20048;-77
2023/10/12 00:04:11;;;;;;;9.75;1.58;;;;;;;;;;5070818;28;20531;-78
2023/10/12 00:06:37;;;;;;;11.77;2.45;;;;;;;;;;5073047;28;20055;-78
2023/10/12 00:09:20;;;;;;;9.73;1.65;;;;;;;;;;5087165;28;21756;-78
2023/10/12 00:11:56;;;;;;;11.38;1.92;;;;;;;;;;5065053;28;20048;-77
2023/10/12 00:14:22;;;;;;;10.00;1.70;;;;;;;;;;5072661;28;20060;-78
2023/10/12 00:16:51;;;;;;;10.70;2.35;;;;;;;;;;5084359;28;20097;-78
2023/10/12 00:19:17;;;;;;;13.90;2.30;;;;;;;;;;5062917;28;20046;-78
2023/10/12 00:21:43;;;;;;;13.00;2.22;;;;;;;;;;5073733;28;20080;-78
2023/10/12 00:24:17;;;;;;;11.93;1.80;;;;;;;;;;5066473;28;20041;-78
2023/10/12 00:26:43;;;;;;;9.93;2.08;;;;;;;;;;5057520;28;20091;-78
2023/10/12 00:29:10;;;;;;;9.00;1.85;;;;;;;;;;5075456;28;20049;-77
2023/10/12 00:31:42;;;;;;;11.77;2.20;;;;;;;;;;5074203;28;20133;-78
2023/10/12 00:34:12;;;;;;;7.90;1.42;;;;;;;;;;5073339;28;20032;-78
2023/10/12 00:36:40;;;;;;;9.27;1.70;;;;;;;;;;5072688;28;20044;-78
2023/10/12 00:39:09;;;;;;;9.27;1.70;;;;;;;;;;5076069;28;20443;-77
2023/10/12 00:41:45;;;;;;;8.93;1.63;;;;;;;;;;5077886;28;20047;-77
2023/10/12 00:44:18;;;;;;;9.75;1.77;;;;;;;;;;5076581;28;20048;-77
2023/10/12 00:49:26;;;;;;;10.98;1.80;;;;;;;;;;5075377;28;20053;-77
2023/10/12 00:52:07;;;;;;;12.30;2.25;;;;;;;;;;5073370;28;20555;-77
2023/10/12 00:57:03;;;;;;;11.10;1.40;;;;;;;;;;5076135;28;20044;-77
2023/10/12 00:59:34;;;;;;;11.45;2.00;;;;;;;;;;5092466;28;20584;-77
2023/10/12 01:02:08;;;;;;;8.85;1.80;;;;;;;;;;5072261;28;20067;-77
2023/10/12 01:04:34;;;;;;;8.88;1.85;;;;;;;;;;5079730;28;20139;-77
2023/10/12 01:07:06;;;;;;;13.70;1.90;;;;;;;;;;5069396;28;20032;-77
2023/10/12 01:09:39;;;;;;;14.70;2.13;;;;;;;;;;5063870;28;20048;-78
2023/10/12 01:12:15;;;;;;;12.02;1.90;;;;;;;;;;5089107;28;20049;-77
2023/10/12 01:14:46;;;;;;;11.45;2.42;;;;;;;;;;5077706;28;20040;-77
2023/10/12 01:17:17;;;;;;;11.25;2.13;;;;;;;;;;5064703;28;20045;-77
2023/10/12 01:19:47;;;;;;;11.40;2.40;;;;;;;;;;5074613;28;20048;-77
2023/10/12 01:22:25;;;;;;;10.82;2.15;;;;;;;;;;5075346;28;20859;-77
2023/10/12 01:27:21;;;;;;;13.20;1.55;;;;;;;;;;5076082;28;20040;-77
2023/10/12 01:29:51;;;;;;;9.68;1.90;;;;;;;;;;5073540;28;20102;-77
2023/10/12 01:34:55;;;;;;;11.10;1.80;;;;;;;;;;5094208;28;20060;-77
2023/10/12 01:37:22;;;;;;;9.80;1.67;;;;;;;;;;5069264;28;20054;-77
2023/10/12 01:40:09;;;;;;;12.25;1.83;;;;;;;;;;5074549;28;20401;-77
2023/10/12 01:45:19;;;;;;;8.63;1.67;;;;;;;;;;5065872;28;20080;-77
2023/10/12 01:47:55;;;;;;;9.90;1.90;;;;;;;;;;5074166;28;20493;-78
2023/10/12 01:50:24;;;;;;;10.18;2.10;;;;;;;;;;5071731;28;20063;-77
2023/10/12 01:52:52;;;;;;;8.23;2.00;;;;;;;;;;5071914;28;20045;-77
2023/10/12 01:55:27;;;;;;;6.75;1.80;;;;;;;;;;5074760;28;20090;-77
2023/10/12 01:57:54;;;;;;;11.02;1.88;;;;;;;;;;5072337;28;20056;-77
2023/10/12 02:00:28;;;;;;;9.18;1.90;;;;;;;;;;5073762;28;20485;-77
2023/10/12 02:03:05;;;;;;;10.38;2.20;;;;;;;;;;5071661;28;20429;-77
2023/10/12 02:05:36;;;;;;;10.30;1.80;;;;;;;;;;5082248;28;20091;-77
2023/10/12 02:08:05;;;;;;;12.80;2.42;;;;;;;;;;5072394;28;20048;-77
2023/10/12 02:10:41;;;;;;;10.27;2.10;;;;;;;;;;5072367;28;20056;-77
2023/10/12 02:13:08;;;;;;;12.10;1.98;;;;;;;;;;5074140;28;20079;-77
2023/10/12 02:15:34;;;;;;;10.77;1.85;;;;;;;;;;5081300;28;20093;-77
2023/10/12 02:18:00;;;;;;;12.10;1.90;;;;;;;;;;5074828;28;20578;-77
2023/10/12 02:20:33;;;;;;;15.20;2.30;;;;;;;;;;5073748;28;20048;-77
2023/10/12 02:23:04;;;;;;;12.68;2.10;;;;;;;;;;5076382;28;20051;-77
2023/10/12 02:25:32;;;;;;;12.02;2.35;;;;;;;;;;5073850;28;20045;-76
2023/10/12 02:27:59;;;;;;;12.13;2.70;;;;;;;;;;5073330;28;20485;-76
2023/10/12 02:30:28;;;;;;;11.25;2.33;;;;;;;;;;5072268;28;20055;-76
2023/10/12 02:33:07;;;;;;;12.02;2.35;;;;;;;;;;5073436;28;20404;-76
2023/10/12 02:35:36;;;;;;;11.15;2.30;;;;;;;;;;5073556;28;20079;-77
2023/10/12 02:38:04;;;;;;;10.23;2.15;;;;;;;;;;5071770;28;20060;-77
2023/10/12 02:40:33;;;;;;;11.20;2.17;;;;;;;;;;5072261;28;20060;-77
2023/10/12 02:43:06;;;;;;;11.88;2.63;;;;;;;;;;5071045;28;20054;-77
2023/10/12 02:45:34;;;;;;;12.65;2.45;;;;;;;;;;5072489;28;20079;-78
2023/10/12 02:48:05;;;;;;;12.80;2.40;;;;;;;;;;5078057;28;20070;-78
2023/10/12 02:50:38;;;;;;;10.77;2.10;;;;;;;;;;5084564;28;20127;-77
2023/10/12 02:53:12;;;;;;;12.15;2.22;;;;;;;;;;5074993;28;20045;-77
2023/10/12 02:55:43;;;;;;;12.48;1.83;;;;;;;;;;5078791;28;20044;-77
2023/10/12 02:58:19;;;;;;;14.02;2.80;;;;;;;;;;5071148;28;20509;-77
2023/10/12 03:00:47;;;;;;;13.73;2.42;;;;;;;;;;5073501;28;20072;-77
2023/10/12 03:03:23;;;;;;;14.75;2.15;;;;;;;;;;5073097;28;20044;-77
2023/10/12 03:05:51;;;;;;;14.15;2.47;;;;;;;;;;5072207;28;20102;-76
2023/10/12 03:08:19;;;;;;;11.00;2.35;;;;;;;;;;5066956;28;20052;-76
2023/10/12 03:11:28;;;;;;;16.27;2.33;;;;;;;;;;5079595;28;20048;-77
2023/10/12 03:13:36;;;;;;;14.15;3.03;;;;;;;;;;5063237;28;20066;-77
2023/10/12 03:16:13;;;;;;;13.75;2.35;;;;;;;;;;5087014;28;20567;-77
2023/10/12 03:18:39;;;;;;;12.77;2.00;;;;;;;;;;5073409;28;20058;-77
2023/10/12 03:21:11;;;;;;;13.55;2.60;;;;;;;;;;5074918;28;20048;-77
2023/10/12 03:23:38;;;;;;;14.65;2.20;;;;;;;;;;5072912;28;20044;-77
2023/10/12 03:26:16;;;;;;;10.50;2.38;;;;;;;;;;5071015;28;20127;-77
2023/10/12 03:28:46;;;;;;;12.43;2.10;;;;;;;;;;5061777;28;20059;-77
2023/10/12 03:31:23;;;;;;;10.98;2.30;;;;;;;;;;5076504;28;20076;-77
2023/10/12 03:33:56;;;;;;;11.02;2.58;;;;;;;;;;5065125;28;20115;-77
2023/10/12 03:36:33;;;;;;;8.15;2.10;;;;;;;;;;5069245;28;20036;-77
2023/10/12 03:49:57;;;;;;;11.48;2.40;;;;;;;;;;5075103;28;20494;-77
2023/10/12 03:52:51;;;;;;;12.23;2.10;;;;;;;;;;5077136;28;20074;-77
2023/10/12 03:55:27;;;;;;;13.43;2.40;;;;;;;;;;5083155;28;20066;-77
2023/10/12 03:58:00;;;;;;;13.80;2.65;;;;;;;;;;5070416;28;20052;-77
2023/10/12 04:00:35;;;;;;;12.80;2.72;;;;;;;;;;5088294;28;20089;-77
2023/10/12 04:03:06;;;;;;;11.02;2.65;;;;;;;;;;5072998;28;20070;-77
2023/10/12 04:08:16;;;;;;;13.77;2.97;;;;;;;;;;5069480;28;20056;-77
2023/10/12 04:18:42;;;;;;;11.75;2.22;;;;;;;;;;5071227;28;20049;-77
2023/10/12 04:21:22;;;;;;;16.77;2.97;;;;;;;;;;5071990;28;20075;-77
2023/10/12 04:24:27;;;;;;;16.38;2.80;;;;;;;;;;5076383;28;20405;-77
2023/10/12 04:29:08;;;;;;;11.77;2.42;;;;;;;;;;5072284;28;20044;-77
2023/10/12 04:31:40;;;;;;;13.00;2.47;;;;;;;;;;5072363;28;20533;-77
2023/10/12 04:34:07;;;;;;;13.30;2.90;;;;;;;;;;5072868;28;20097;-77
2023/10/12 04:36:44;;;;;;;13.43;2.97;;;;;;;;;;5080750;28;20036;-77
2023/10/12 04:47:04;;;;;;;15.02;2.90;;;;;;;;;;5074857;28;20044;-77
2023/10/12 04:52:09;;;;;;;10.65;2.75;;;;;;;;;;5073416;28;20413;-77
2023/10/12 04:54:49;;;;;;;13.13;2.85;;;;;;;;;;5067072;28;21797;-77
2023/10/12 04:57:15;;;;;;;12.63;3.05;;;;;;;;;;5073822;28;20049;-77
2023/10/12 05:00:00;;;;;;;14.63;2.83;;;;;;;;;;5075942;28;20098;-77
2023/10/12 05:08:02;;;;;;;15.48;3.25;;;;;;;;;;5076927;28;20051;-77
2023/10/12 05:13:04;;;;;;;12.23;3.00;;;;;;;;;;5079272;28;20045;-77
2023/10/12 05:15:42;;;;;;;11.63;2.97;;;;;;;;;;5075356;28;20428;-77
2023/10/12 05:18:12;;;;;;;15.82;3.30;;;;;;;;;;5075273;28;20494;-77
2023/10/12 05:20:41;;;;;;;13.35;2.80;;;;;;;;;;5075213;28;20056;-77
2023/10/12 05:23:07;;;;;;;14.75;3.55;;;;;;;;;;5075706;28;20118;-77
2023/10/12 05:28:18;;;;;;;16.50;3.28;;;;;;;;;;5074478;28;20502;-77
2023/10/12 05:30:59;;;;;;;12.20;3.08;;;;;;;;;;5084241;28;20048;-77
2023/10/12 05:36:10;;;;;;;12.15;2.97;;;;;;;;;;5066622;28;20053;-77
2023/10/12 05:38:36;;;;;;;18.00;3.40;;;;;;;;;;5075255;28;20040;-77
2023/10/12 05:41:09;;;;;;;16.58;3.55;;;;;;;;;;5075093;28;20119;-77
2023/10/12 05:43:40;;;;;;;11.82;3.58;;;;;;;;;;5068355;28;20048;-77
2023/10/12 05:46:15;;;;;;;13.75;2.78;;;;;;;;;;5065436;28;20435;-77
2023/10/12 05:48:45;;;;;;;17.25;3.10;;;;;;;;;;5069271;28;20044;-77
2023/10/12 05:51:18;;;;;;;14.68;2.70;;;;;;;;;;5075131;28;20044;-77
2023/10/12 05:53:45;;;;;;;10.65;3.15;;;;;;;;;;5074429;28;20460;-77
2023/10/12 05:56:11;;;;;;;8.25;2.72;;;;;;;;;;5066598;28;20124;-77
2023/10/12 05:58:40;;;;;;;15.10;3.05;;;;;;;;;;5072382;28;20126;-77
2023/10/12 06:01:09;;;;;;;8.20;2.75;;;;;;;;;;5072627;28;20051;-77
2023/10/12 06:03:39;;;;;;;9.60;2.63;;;;;;;;;;5075267;28;20047;-77
2023/10/12 06:06:06;;;;;;;13.07;2.70;;;;;;;;;;5068318;28;20041;-76
2023/10/12 06:08:37;;;;;;;11.68;2.90;;;;;;;;;;5073992;28;20497;-77
2023/10/12 06:11:04;;;;;;;12.45;2.70;;;;;;;;;;5070212;28;20118;-76
2023/10/12 06:13:32;;;;;;;14.32;2.78;;;;;;;;;;5070223;28;20049;-77
2023/10/12 06:15:58;;;;;;;15.02;2.97;;;;;;;;;;5069623;28;20051;-77
2023/10/12 06:18:30;;;;;;;12.05;3.00;;;;;;;;;;5072762;28;20044;-77
2023/10/12 06:20:59;;;;;;;12.88;2.55;;;;;;;;;;5078653;28;20061;-77
2023/10/12 06:23:27;;;;;;;15.80;2.75;;;;;;;;;;5068065;28;20048;-77
2023/10/12 06:25:55;;;;;;;11.38;2.83;;;;;;;;;;5090611;28;20591;-77
2023/10/12 06:28:21;;;;;;;11.88;2.90;;;;;;;;;;5086411;28;20075;-77
2023/10/12 06:30:47;;;;;;;10.68;3.47;;;;;;;;;;5092589;28;20377;-77
2023/10/12 06:33:17;;;;;;;11.95;3.30;;;;;;;;;;5080408;28;20401;-77
2023/10/12 06:35:58;;;;;;;12.82;4.40;;;;;;;;;;5073973;28;20037;-77
2023/10/12 06:38:36;;;;;;;12.00;4.20;;;;;;;;;;5071885;28;20397;-77
2023/10/12 06:41:28;;;;;;;11.13;3.40;;;;;;;;;;5072073;28;20218;-77
2023/10/12 06:46:17;;;;;;;16.27;4.20;;;;;;;;;;5090473;28;20113;-77
2023/10/12 06:48:47;;;;;;;14.23;3.35;;;;;;;;;;5081289;28;20102;-77
2023/10/12 06:51:13;;;;;;;15.55;3.00;;;;;;;;;;5070316;28;20056;-77
2023/10/12 06:53:42;;;;;;;12.32;2.58;;;;;;;;;;5070229;28;20044;-77
2023/10/12 06:58:46;;;;;;;11.40;2.40;;;;;;;;;;5072236;28;20390;-77
2023/10/12 07:01:18;;;;;;;13.05;2.90;;;;;;;;;;5073225;28;20093;-77
2023/10/12 07:03:48;;;;;;;14.35;2.85;;;;;;;;;;5090674;28;20485;-77
2023/10/12 07:06:15;;;;;;;13.48;3.00;;;;;;;;;;5077637;28;20048;-77
2023/10/12 07:08:42;;;;;;;11.82;3.00;;;;;;;;;;5074058;28;20037;-77
2023/10/12 07:11:11;;;;;;;17.92;3.00;;;;;;;;;;5069070;28;20040;-77
2023/10/12 07:13:45;;;;;;;13.15;3.42;;;;;;;;;;5084208;28;20064;-76
2023/10/12 07:16:15;;;;;;;11.07;2.83;;;;;;;;;;5069070;28;20041;-77
2023/10/12 07:18:44;;;;;;;11.60;2.88;;;;;;;;;;5074140;28;20102;-77
2023/10/12 07:21:21;;;;;;;10.82;2.47;;;;;;;;;;5077256;28;20055;-77
2023/10/12 07:23:55;;;;;;;15.15;2.90;;;;;;;;;;5087092;28;20529;-77
2023/10/12 07:26:22;;;;;;;8.45;2.30;;;;;;;;;;5069179;28;20439;-78
2023/10/12 07:28:50;;;;;;;9.13;2.30;;;;;;;;;;5070180;28;20129;-78
2023/10/12 07:39:22;;;;;;;13.38;2.80;;;;;;;;;;5063470;28;20378;-77
2023/10/12 07:41:55;;;;;;;9.55;2.60;;;;;;;;;;5082226;28;20053;-77
2023/10/12 07:44:27;;;;;;;12.80;3.10;;;;;;;;;;5067217;28;20083;-77
2023/10/12 07:46:56;;;;;;;13.80;2.10;;;;;;;;;;5092524;28;20040;-77
2023/10/12 07:49:29;;;;;;;10.02;1.90;;;;;;;;;;5077976;28;20499;-77
2023/10/12 07:52:09;;;;;;;14.02;2.70;;;;;;;;;;5087435;28;20078;-77
2023/10/12 07:54:54;;;;;;;10.70;1.90;;;;;;;;;;5069785;28;20118;-77
2023/10/12 07:57:22;;;;;;;12.27;2.35;;;;;;;;;;5072727;28;20052;-77
2023/10/12 07:59:59;;;;;;;10.50;2.78;;;;;;;;;;5071342;28;20048;-77
2023/10/12 08:05:24;;;;;;;12.63;2.22;;;;;;;;;;5074842;28;20452;-77
2023/10/12 08:15:49;;;;;;;11.93;1.98;;;;;;;;;;5076160;28;20053;-78
2023/10/12 08:21:01;;;;;;;8.75;1.80;;;;;;;;;;5068691;28;20053;-77
2023/10/12 08:23:27;;;;;;;12.43;2.05;;;;;;;;;;5069666;28;20063;-78
2023/10/12 08:25:57;;;;;;;9.80;2.03;;;;;;;;;;5072795;28;20423;-77
2023/10/12 08:28:26;;;;;;;16.67;2.10;;;;;;;;;;5072104;28;20405;-77
2023/10/12 08:31:01;;;;;;;12.77;2.17;;;;;;;;;;5073709;28;20047;-77
2023/10/12 08:38:52;;;;;;;10.55;2.00;;;;;;;;;;5074522;28;20052;-77
2023/10/12 08:41:37;;;;;;;11.63;2.30;;;;;;;;;;5074387;28;20045;-77
2023/10/12 08:44:05;;;;;;;11.30;1.70;;;;;;;;;;5075548;28;20052;-77
2023/10/12 08:52:04;;;;;;;10.02;1.90;;;;;;;;;;5064316;28;20049;-77
2023/10/12 08:54:37;;;;;;;11.80;1.70;;;;;;;;;;5081857;28;20492;-77
2023/10/12 08:57:03;;;;;;;10.65;1.65;;;;;;;;;;5072692;28;20416;-77
2023/10/12 08:59:34;;;;;;;10.68;1.80;;;;;;;;;;5068287;28;20116;-77
2023/10/12 09:02:18;;;;;;;13.00;2.22;;;;;;;;;;5075565;28;20044;-77
2023/10/12 09:04:44;;;;;;;9.20;1.40;;;;;;;;;;5071026;28;20158;-77
2023/10/12 09:07:16;;;;;;;11.20;1.80;;;;;;;;;;5074670;28;20406;-77
2023/10/12 09:09:48;;;;;;;9.98;1.60;;;;;;;;;;5074272;28;20236;-77
2023/10/12 09:12:19;;;;;;;13.65;1.80;;;;;;;;;;5069514;28;20574;-77
2023/10/12 09:14:46;;;;;;;8.57;1.65;;;;;;;;;;5072346;28;20040;-78
2023/10/12 09:17:27;;;;;;;11.95;1.73;;;;;;;;;;5074837;28;20087;-78
2023/10/12 09:20:09;;;;;;;10.15;1.85;;;;;;;;;;5072648;28;20063;-78
2023/10/12 09:22:37;;;;;;;10.90;1.90;;;;;;;;;;5072705;28;20048;-77
2023/10/12 09:25:05;;;;;;;12.27;1.70;;;;;;;;;;5074796;28;20044;-78
2023/10/12 09:27:48;;;;;;;13.85;1.50;;;;;;;;;;5073067;28;20448;-78
2023/10/12 09:30:18;;;;;;;21.73;2.55;;;;;;;;;;5065408;28;20143;-78
2023/10/12 09:32:57;;;;;;;11.57;1.70;;;;;;;;;;5073006;28;20473;-78
2023/10/12 09:35:33;;;;;;;10.52;1.70;;;;;;;;;;5075296;28;20048;-78
2023/10/12 09:38:01;;;;;;;13.38;2.10;;;;;;;;;;5076686;28;20416;-78
2023/10/12 09:40:39;;;;;;;13.10;1.75;;;;;;;;;;5072348;28;20044;-78
2023/10/12 09:43:14;;;;;;;12.40;1.88;;;;;;;;;;5071996;28;20154;-78
2023/10/12 09:45:47;;;;;;;13.30;2.00;;;;;;;;;;5073980;28;20041;-78
2023/10/12 09:48:19;;;;;;;14.20;2.03;;;;;;;;;;5070574;28;20075;-78
2023/10/12 09:50:48;;;;;;;13.00;1.90;;;;;;;;;;5074700;28;20117;-78
2023/10/12 09:53:26;;;;;;;10.32;1.75;;;;;;;;;;5073152;28;20471;-78
2023/10/12 09:56:15;;;;;;;10.73;1.52;;;;;;;;;;5074440;28;20115;-78
2023/10/12 10:07:17;;;;;;;12.90;2.28;;;;;;;;;;5072890;28;20045;-78
2023/10/12 10:09:46;;;;;;;10.23;1.65;;;;;;;;;;5067588;28;20404;-78
2023/10/12 10:12:16;;;;;;;13.30;2.28;;;;;;;;;;5076912;28;20063;-78
2023/10/12 10:14:47;;;;;;;13.18;2.25;;;;;;;;;;5073453;28;20505;-78
2023/10/12 10:17:16;;;;;;;11.25;2.03;;;;;;;;;;5074466;28;20041;-78
2023/10/12 10:19:51;;;;;;;12.32;1.83;;;;;;;;;;5053096;28;20052;-78
2023/10/12 10:22:20;;;;;;;10.93;1.80;;;;;;;;;;5055238;28;20114;-78
2023/10/12 10:24:50;;;;;;;12.68;1.80;;;;;;;;;;5073883;28;20032;-78
2023/10/12 10:27:16;;;;;;;8.73;1.60;;;;;;;;;;5074203;28;20058;-78
2023/10/12 10:29:53;;;;;;;10.35;1.85;;;;;;;;;;5074179;28;20051;-78
2023/10/12 10:32:38;;;;;;;6.63;1.42;;;;;;;;;;5072865;28;20060;-78
2023/10/12 10:35:18;;;;;;;9.73;2.00;;;;;;;;;;5072670;28;20119;-78
2023/10/12 10:37:57;;;;;;;10.90;1.83;;;;;;;;;;5071050;28;20047;-78
2023/10/12 10:40:39;;;;;;;9.68;1.52;;;;;;;;;;5079840;28;20058;-79
2023/10/12 10:43:14;;;;;;;10.88;1.80;;;;;;;;;;5084716;28;20037;-79
2023/10/12 10:45:42;;;;;;;10.52;1.42;;;;;;;;;;5065137;28;20051;-79
2023/10/12 10:48:13;;;;;;;10.60;1.73;;;;;;;;;;5073304;28;20036;-79
2023/10/12 10:50:49;;;;;;;11.07;1.75;;;;;;;;;;5072924;28;20068;-79
2023/10/12 10:53:15;;;;;;;8.63;1.70;;;;;;;;;;5072867;28;20056;-79
2023/10/12 10:55:42;;;;;;;12.18;1.88;;;;;;;;;;5072519;28;20049;-79
2023/10/12 10:58:10;;;;;;;9.98;1.77;;;;;;;;;;5073633;28;20128;-79
2023/10/12 11:00:39;;;;;;;9.98;1.70;;;;;;;;;;5074403;28;20052;-79
2023/10/12 11:03:05;;;;;;;13.43;2.05;;;;;;;;;;5072279;28;20048;-79
2023/10/12 11:05:31;;;;;;;10.95;2.03;;;;;;;;;;5080951;28;20510;-79
2023/10/12 11:08:18;;;;;;;11.43;1.85;;;;;;;;;;5077602;28;20087;-79
2023/10/12 11:13:31;;;;;;;9.82;1.77;;;;;;;;;;5072103;28;20048;-79
2023/10/12 11:16:03;;;;;;;13.98;2.20;;;;;;;;;;5073064;28;20127;-78
2023/10/12 11:18:29;;;;;;;11.93;1.60;;;;;;;;;;5075174;28;20051;-78
2023/10/12 11:21:00;;;;;;;10.65;1.90;;;;;;;;;;5072454;28;20063;-79
2023/10/12 11:23:26;;;;;;;10.18;1.58;;;;;;;;;;5074783;28;20153;-79
2023/10/12 11:25:55;;;;;;;11.27;1.75;;;;;;;;;;5072296;28;20045;-79
2023/10/12 11:28:26;;;;;;;10.40;2.28;;;;;;;;;;5070940;28;20437;-79
2023/10/12 11:30:59;;;;;;;10.88;1.92;;;;;;;;;;5074536;28;20076;-79
2023/10/12 11:33:27;;;;;;;9.85;1.70;;;;;;;;;;5084414;28;20056;-79
2023/10/12 11:35:54;;;;;;;10.45;1.98;;;;;;;;;;5080078;28;20052;-79
2023/10/12 11:38:21;;;;;;;10.85;1.80;;;;;;;;;;5075615;28;20052;-79
2023/10/12 11:40:52;;;;;;;13.98;2.00;;;;;;;;;;5076017;28;20036;-79
2023/10/12 11:43:19;;;;;;;11.27;2.03;;;;;;;;;;5074187;28;20044;-79
2023/10/12 11:45:56;;;;;;;12.05;1.90;;;;;;;;;;5073430;28;20064;-79
2023/10/12 11:48:24;;;;;;;9.60;1.73;;;;;;;;;;5072451;28;20524;-79
2023/10/12 11:50:50;;;;;;;15.48;2.63;;;;;;;;;;5056605;28;20048;-79
2023/10/12 11:53:17;;;;;;;11.27;1.95;;;;;;;;;;5077880;28;20115;-79
2023/10/12 11:55:44;;;;;;;12.13;2.47;;;;;;;;;;5074633;28;20092;-79
2023/10/12 11:58:16;;;;;;;14.02;2.00;;;;;;;;;;5076110;28;20040;-79
2023/10/12 12:00:45;;;;;;;13.70;1.90;;;;;;;;;;5072961;28;20557;-79
2023/10/12 12:03:11;;;;;;;14.18;2.70;;;;;;;;;;5069177;28;20037;-80
2023/10/12 12:05:39;;;;;;;12.30;2.40;;;;;;;;;;5074915;28;20048;-79
2023/10/12 12:08:13;;;;;;;31.10;2.83;;;;;;;;;;5075998;28;20063;-78
2023/10/12 12:10:46;;;;;;;78.97;5.15;;;;;;;;;;5075504;28;20053;-79
2023/10/12 12:13:13;;;;;;;23.05;2.42;;;;;;;;;;5071281;28;20048;-79
2023/10/12 12:15:45;;;;;;;13.13;1.98;;;;;;;;;;5075353;28;20044;-79
2023/10/12 12:18:17;;;;;;;11.13;2.08;;;;;;;;;;5073702;28;20056;-79
2023/10/12 12:20:44;;;;;;;11.05;1.52;;;;;;;;;;5073689;28;20527;-79
2023/10/12 12:23:11;;;;;;;11.15;3.10;;;;;;;;;;5067999;28;20460;-79
2023/10/12 12:25:41;;;;;;;7.95;1.70;;;;;;;;;;5067033;28;20032;-79
2023/10/12 12:28:08;;;;;;;10.27;1.60;;;;;;;;;;5064269;28;20051;-79
2023/10/12 12:30:35;;;;;;;10.95;2.05;;;;;;;;;;5075660;28;20543;-79
2023/10/12 12:33:03;;;;;;;13.48;2.20;;;;;;;;;;5077572;28;20124;-79
2023/10/12 12:35:29;;;;;;;13.05;1.80;;;;;;;;;;5075194;28;20048;-79
2023/10/12 12:38:04;;;;;;;12.20;1.60;;;;;;;;;;5074822;28;20090;-79
2023/10/12 12:40:31;;;;;;;9.57;1.52;;;;;;;;;;5075411;28;20064;-79
2023/10/12 12:43:00;;;;;;;11.23;2.10;;;;;;;;;;5082580;28;20124;-79
2023/10/12 12:45:27;;;;;;;14.55;1.77;;;;;;;;;;5078448;28;20041;-79
2023/10/12 12:47:55;;;;;;;9.18;1.70;;;;;;;;;;5078763;28;20053;-79
2023/10/12 12:50:21;;;;;;;12.10;2.00;;;;;;;;;;5074680;28;20053;-79
2023/10/12 12:52:47;;;;;;;11.98;1.67;;;;;;;;;;5071853;28;20393;-78
2023/10/12 12:55:18;;;;;;;8.98;1.70;;;;;;;;;;5072013;28;20053;-79
2023/10/12 12:57:45;;;;;;;12.77;1.97;;;;;;;;;;5074280;28;20048;-79
2023/10/12 13:00:19;;;;;;;12.55;2.30;;;;;;;;;;5073157;28;20343;-79
2023/10/12 13:02:46;;;;;;;13.80;2.15;;;;;;;;;;5054003;28;20098;-79
2023/10/12 13:05:12;;;;;;;13.07;1.83;;;;;;;;;;5073254;28;20087;-79
2023/10/12 13:07:38;;;;;;;13.25;2.13;;;;;;;;;;5073065;28;20041;-79
2023/10/12 13:10:07;;;;;;;11.57;1.65;;;;;;;;;;5073133;28;20044;-79
2023/10/12 13:12:33;;;;;;;11.55;2.10;;;;;;;;;;5072928;28;20049;-79
2023/10/12 13:15:00;;;;;;;9.30;1.70;;;;;;;;;;5074371;28;20041;-79
2023/10/12 13:17:30;;;;;;;10.15;1.60;;;;;;;;;;5076736;28;20052;-79
2023/10/12 13:19:59;;;;;;;7.53;1.80;;;;;;;;;;5081779;28;20608;-79
2023/10/12 13:22:26;;;;;;;12.05;1.45;;;;;;;;;;5088949;28;20051;-80
2023/10/12 13:24:56;;;;;;;11.27;2.10;;;;;;;;;;5073671;28;20090;-79
2023/10/12 13:27:32;;;;;;;11.50;1.85;;;;;;;;;;5080106;28;20052;-79
2023/10/12 13:30:00;;;;;;;12.02;1.90;;;;;;;;;;5079422;28;20413;-79
2023/10/12 13:32:26;;;;;;;10.10;1.67;;;;;;;;;;5077098;28;20453;-79
2023/10/12 13:34:57;;;;;;;11.35;1.90;;;;;;;;;;5075412;28;20048;-79
2023/10/12 13:37:24;;;;;;;11.52;1.83;;;;;;;;;;5079310;28;20123;-79
2023/10/12 13:39:50;;;;;;;9.00;1.83;;;;;;;;;;5079484;28;20413;-79
2023/10/12 13:42:16;;;;;;;9.07;1.77;;;;;;;;;;5079174;28;20446;-79
2023/10/12 13:44:43;;;;;;;13.52;2.08;;;;;;;;;;5079373;28;20421;-79
2023/10/12 13:47:12;;;;;;;12.27;1.85;;;;;;;;;;5080500;28;20048;-79
2023/10/12 13:49:41;;;;;;;13.57;1.83;;;;;;;;;;5082748;28;20055;-80
2023/10/12 13:52:09;;;;;;;13.10;2.20;;;;;;;;;;5091313;28;20153;-80
2023/10/12 13:54:36;;;;;;;10.45;2.10;;;;;;;;;;5079936;28;20072;-80
2023/10/12 13:57:02;;;;;;;17.67;2.10;;;;;;;;;;5080594;28;20490;-80
2023/10/12 13:59:31;;;;;;;13.13;2.17;;;;;;;;;;5080784;28;20493;-80
2023/10/12 14:01:59;;;;;;;13.43;2.00;;;;;;;;;;5081839;28;20045;-80
2023/10/12 14:04:33;;;;;;;11.10;2.10;;;;;;;;;;5079564;28;20063;-80
2023/10/12 14:07:03;;;;;;;11.90;2.25;;;;;;;;;;5078069;28;20060;-80
2023/10/12 14:09:32;;;;;;;8.80;1.63;;;;;;;;;;5072814;28;20048;-80
2023/10/12 14:11:59;;;;;;;11.23;1.90;;;;;;;;;;5079293;28;20056;-80
2023/10/12 14:14:25;;;;;;;17.52;2.60;;;;;;;;;;5078828;28;20054;-80
2023/10/12 14:16:51;;;;;;;11.45;2.00;;;;;;;;;;5078286;28;20055;-80
2023/10/12 14:19:22;;;;;;;10.95;1.95;;;;;;;;;;5072438;28;20544;-80
2023/10/12 14:21:52;;;;;;;12.23;2.20;;;;;;;;;;5077621;28;20060;-79
2023/10/12 14:24:23;;;;;;;11.63;2.78;;;;;;;;;;5079098;28;20074;-79
2023/10/12 14:26:49;;;;;;;10.60;1.73;;;;;;;;;;5077421;28;20048;-79
2023/10/12 14:29:18;;;;;;;11.93;1.98;;;;;;;;;;5079068;28;20047;-80
2023/10/12 14:31:45;;;;;;;14.13;2.50;;;;;;;;;;5076662;28;20068;-80
2023/10/12 14:34:13;;;;;;;13.48;2.05;;;;;;;;;;5077575;28;20037;-79
2023/10/12 14:36:39;;;;;;;14.73;2.72;;;;;;;;;;5078791;28;20055;-79
2023/10/12 14:39:12;;;;;;;12.68;2.20;;;;;;;;;;5078316;28;20052;-79
2023/10/12 14:41:39;;;;;;;15.02;3.03;;;;;;;;;;5075097;28;20094;-79
2023/10/12 14:44:05;;;;;;;13.50;2.72;;;;;;;;;;5077938;28;20190;-78
2023/10/12 14:46:31;;;;;;;13.13;2.67;;;;;;;;;;5075304;28;20047;-78
2023/10/12 14:49:01;;;;;;;10.55;2.40;;;;;;;;;;5075483;28;20044;-79
2023/10/12 14:51:29;;;;;;;12.73;2.72;;;;;;;;;;5076046;28;20504;-78
2023/10/12 14:53:56;;;;;;;11.95;2.58;;;;;;;;;;5091663;28;20072;-78
2023/10/12 14:56:29;;;;;;;13.73;2.78;;;;;;;;;;5090165;28;20052;-78
2023/10/12 14:58:56;;;;;;;11.90;2.60;;;;;;;;;;5089955;28;20057;-78
2023/10/12 15:01:27;;;;;;;12.30;2.92;;;;;;;;;;5074258;28;20056;-78
2023/10/12 15:03:54;;;;;;;9.85;2.83;;;;;;;;;;5063799;28;20445;-78
2023/10/12 15:06:20;;;;;;;13.88;3.03;;;;;;;;;;5057324;28;20101;-78
2023/10/12 15:08:48;;;;;;;14.43;3.28;;;;;;;;;;5074146;28;20098;-78
2023/10/12 15:11:14;;;;;;;10.27;2.90;;;;;;;;;;5074102;28;20106;-78
2023/10/12 15:13:41;;;;;;;12.65;3.45;;;;;;;;;;5079987;28;20119;-78
2023/10/12 15:16:10;;;;;;;12.68;3.20;;;;;;;;;;5080267;28;20036;-78
2023/10/12 15:18:39;;;;;;;11.88;3.42;;;;;;;;;;5092339;28;20048;-78
2023/10/12 15:21:10;;;;;;;12.85;3.15;;;;;;;;;;5081380;28;20060;-78
2023/10/12 15:23:36;;;;;;;11.90;3.05;;;;;;;;;;5092511;28;20040;-77
2023/10/12 15:26:02;;;;;;;12.88;3.20;;;;;;;;;;5074173;28;20048;-77
2023/10/12 15:28:28;;;;;;;13.75;3.20;;;;;;;;;;5073234;28;20551;-77
2023/10/12 15:30:54;;;;;;;13.30;3.28;;;;;;;;;;5071559;28;20056;-77
2023/10/12 15:33:22;;;;;;;12.23;2.90;;;;;;;;;;5073069;28;20045;-76
2023/10/12 15:35:48;;;;;;;11.95;2.97;;;;;;;;;;5073446;28;20047;-76
2023/10/12 15:38:14;;;;;;;14.73;3.55;;;;;;;;;;5067499;28;20171;-76
2023/10/12 15:40:41;;;;;;;12.25;3.47;;;;;;;;;;5071038;28;20047;-76
2023/10/12 15:43:15;;;;;;;11.07;3.50;;;;;;;;;;5074183;28;20073;-76
2023/10/12 15:45:43;;;;;;;11.95;3.20;;;;;;;;;;5070331;28;20044;-77
2023/10/12 15:48:09;;;;;;;12.27;3.65;;;;;;;;;;5072900;28;20405;-76
2023/10/12 15:50:35;;;;;;;10.52;3.08;;;;;;;;;;5081834;28;20434;-76
2023/10/12 15:53:01;;;;;;;12.45;3.50;;;;;;;;;;5083442;28;20037;-76
2023/10/12 15:55:27;;;;;;;12.15;3.55;;;;;;;;;;5070399;28;20082;-76
2023/10/12 15:57:57;;;;;;;13.25;3.03;;;;;;;;;;5086026;28;20055;-76
2023/10/12 16:00:24;;;;;;;11.52;3.20;;;;;;;;;;5066588;28;20127;-76
2023/10/12 16:02:53;;;;;;;14.43;3.15;;;;;;;;;;5071272;28;20067;-76
2023/10/12 16:05:21;;;;;;;13.77;3.17;;;;;;;;;;5067400;28;20041;-76
2023/10/12 16:07:48;;;;;;;13.20;4.13;;;;;;;;;;5091885;28;20048;-76
2023/10/12 16:10:17;;;;;;;12.90;3.25;;;;;;;;;;5092009;28;20087;-76
2023/10/12 16:12:45;;;;;;;11.27;3.53;;;;;;;;;;5079909;28;20432;-76
2023/10/12 16:15:12;;;;;;;11.88;3.47;;;;;;;;;;5072375;28;20510;-76
2023/10/12 16:17:42;;;;;;;13.20;3.55;;;;;;;;;;5088343;28;20108;-76
2023/10/12 16:20:10;;;;;;;14.10;3.30;;;;;;;;;;5070799;28;20053;-76
2023/10/12 16:22:42;;;;;;;13.93;3.08;;;;;;;;;;5072047;28;20490;-76
2023/10/12 16:25:19;;;;;;;12.63;2.72;;;;;;;;;;5070661;28;20051;-75
2023/10/12 16:27:45;;;;;;;13.10;3.28;;;;;;;;;;5079046;28;20119;-76
2023/10/12 16:30:15;;;;;;;14.90;3.20;;;;;;;;;;5069650;28;20044;-76
2023/10/12 16:32:43;;;;;;;15.98;3.78;;;;;;;;;;5071869;28;20070;-76
2023/10/12 16:35:10;;;;;;;11.93;2.88;;;;;;;;;;5071554;28;20083;-76
2023/10/12 16:37:36;;;;;;;10.30;2.83;;;;;;;;;;5087375;28;20125;-76
2023/10/12 16:40:05;;;;;;;12.45;3.13;;;;;;;;;;5086427;28;20040;-76